sensor_id;sensor_type;location;lat;lon;timestamp;temperature;humidity
22544;DHT22;11438;52.044;8.716;2022-07-06T00:02:23;20.00;69.70
22544;DHT22;11438;52.044;8.716;2022-07-06T00:04:48;20.00;70.30
22544;DHT22;11438;52.044;8.716;2022-07-06T00:07:14;20.00;70.30
22544;DHT22;11438;52.044;8.716;2022-07-06T00:09:40;20.00;70.50
22544;DHT22;11438;52.044;8.716;2022-07-06T00:12:06;19.90;70.50
22544;DHT22;11438;52.044;8.716;2022-07-06T00:14:32;19.90;70.40
22544;DHT22;11438;52.044;8.716;2022-07-06T00:16:58;19.90;70.50
22544;DHT22;11438;52.044;8.716;2022-07-06T00:19:23;19.90;70.40
22544;DHT22;11438;52.044;8.716;2022-07-06T00:21:49;19.90;70.60
22544;DHT22;11438;52.044;8.716;2022-07-06T00:24:14;19.80;70.90
22544;DHT22;11438;52.044;8.716;2022-07-06T00:26:41;19.80;70.80
22544;DHT22;11438;52.044;8.716;2022-07-06T00:29:07;19.80;71.80
22544;DHT22;11438;52.044;8.716;2022-07-06T00:31:32;19.70;70.80
22544;DHT22;11438;52.044;8.716;2022-07-06T00:33:58;19.70;70.90
22544;DHT22;11438;52.044;8.716;2022-07-06T00:36:23;19.70;70.80
22544;DHT22;11438;52.044;8.716;2022-07-06T00:38:49;19.60;70.80
22544;DHT22;11438;52.044;8.716;2022-07-06T00:41:14;19.60;71.10
22544;DHT22;11438;52.044;8.716;2022-07-06T00:43:51;19.50;71.20
22544;DHT22;11438;52.044;8.716;2022-07-06T00:46:17;19.50;71.50
22544;DHT22;11438;52.044;8.716;2022-07-06T00:48:43;19.50;71.40
22544;DHT22;11438;52.044;8.716;2022-07-06T00:51:09;19.40;71.30
22544;DHT22;11438;52.044;8.716;2022-07-06T00:53:35;19.40;72.20
22544;DHT22;11438;52.044;8.716;2022-07-06T00:56:01;19.30;71.70
22544;DHT22;11438;52.044;8.716;2022-07-06T00:58:26;19.30;72.00
22544;DHT22;11438;52.044;8.716;2022-07-06T01:00:52;19.30;72.30
22544;DHT22;11438;52.044;8.716;2022-07-06T01:03:17;19.30;72.40
22544;DHT22;11438;52.044;8.716;2022-07-06T01:05:44;19.20;72.30
22544;DHT22;11438;52.044;8.716;2022-07-06T01:08:09;19.20;72.20
22544;DHT22;11438;52.044;8.716;2022-07-06T01:10:35;19.20;72.50
22544;DHT22;11438;52.044;8.716;2022-07-06T01:13:01;19.20;72.20
22544;DHT22;11438;52.044;8.716;2022-07-06T01:15:26;19.10;72.20
22544;DHT22;11438;52.044;8.716;2022-07-06T01:17:52;19.10;72.50
22544;DHT22;11438;52.044;8.716;2022-07-06T01:20:22;19.10;72.80
22544;DHT22;11438;52.044;8.716;2022-07-06T01:22:50;19.10;72.90
22544;DHT22;11438;52.044;8.716;2022-07-06T01:25:16;19.10;73.20
22544;DHT22;11438;52.044;8.716;2022-07-06T01:27:43;19.00;73.10
22544;DHT22;11438;52.044;8.716;2022-07-06T01:30:10;19.00;73.10
22544;DHT22;11438;52.044;8.716;2022-07-06T01:32:37;19.00;73.40
22544;DHT22;11438;52.044;8.716;2022-07-06T01:35:03;19.00;73.30
22544;DHT22;11438;52.044;8.716;2022-07-06T01:37:30;19.00;73.50
22544;DHT22;11438;52.044;8.716;2022-07-06T01:39:59;19.00;73.80
22544;DHT22;11438;52.044;8.716;2022-07-06T01:42:25;19.00;74.00
22544;DHT22;11438;52.044;8.716;2022-07-06T01:44:51;18.90;74.00
22544;DHT22;11438;52.044;8.716;2022-07-06T01:47:16;18.90;73.80
22544;DHT22;11438;52.044;8.716;2022-07-06T01:49:42;18.90;73.70
22544;DHT22;11438;52.044;8.716;2022-07-06T01:52:07;18.90;74.10
22544;DHT22;11438;52.044;8.716;2022-07-06T01:54:33;18.80;73.90
22544;DHT22;11438;52.044;8.716;2022-07-06T01:56:59;18.80;74.20
22544;DHT22;11438;52.044;8.716;2022-07-06T01:59:24;18.80;74.10
22544;DHT22;11438;52.044;8.716;2022-07-06T02:01:50;18.80;74.40
22544;DHT22;11438;52.044;8.716;2022-07-06T02:04:15;18.80;74.40
22544;DHT22;11438;52.044;8.716;2022-07-06T02:06:41;18.80;74.30
22544;DHT22;11438;52.044;8.716;2022-07-06T02:09:06;18.70;74.40
22544;DHT22;11438;52.044;8.716;2022-07-06T02:11:32;18.70;74.40
22544;DHT22;11438;52.044;8.716;2022-07-06T02:13:57;18.70;74.60
22544;DHT22;11438;52.044;8.716;2022-07-06T02:16:22;18.70;74.90
22544;DHT22;11438;52.044;8.716;2022-07-06T02:18:48;18.70;74.90
22544;DHT22;11438;52.044;8.716;2022-07-06T02:21:13;18.70;75.10
22544;DHT22;11438;52.044;8.716;2022-07-06T02:23:39;18.70;75.20
22544;DHT22;11438;52.044;8.716;2022-07-06T02:26:05;18.70;75.30
22544;DHT22;11438;52.044;8.716;2022-07-06T02:28:30;18.70;75.20
22544;DHT22;11438;52.044;8.716;2022-07-06T02:30:56;18.70;75.30
22544;DHT22;11438;52.044;8.716;2022-07-06T02:33:21;18.70;75.40
22544;DHT22;11438;52.044;8.716;2022-07-06T02:35:47;18.80;75.50
22544;DHT22;11438;52.044;8.716;2022-07-06T02:38:12;18.80;75.60
22544;DHT22;11438;52.044;8.716;2022-07-06T02:40:38;18.80;75.90
22544;DHT22;11438;52.044;8.716;2022-07-06T02:43:04;18.80;75.90
22544;DHT22;11438;52.044;8.716;2022-07-06T02:45:30;18.80;75.90
22544;DHT22;11438;52.044;8.716;2022-07-06T02:47:56;18.80;75.80
22544;DHT22;11438;52.044;8.716;2022-07-06T02:50:23;18.80;75.80
22544;DHT22;11438;52.044;8.716;2022-07-06T02:52:48;18.80;76.00
22544;DHT22;11438;52.044;8.716;2022-07-06T02:55:14;18.80;76.00
22544;DHT22;11438;52.044;8.716;2022-07-06T02:57:39;18.80;76.00
22544;DHT22;11438;52.044;8.716;2022-07-06T03:00:06;18.80;76.20
22544;DHT22;11438;52.044;8.716;2022-07-06T03:02:31;18.80;76.20
22544;DHT22;11438;52.044;8.716;2022-07-06T03:04:57;18.80;76.20
22544;DHT22;11438;52.044;8.716;2022-07-06T03:07:22;18.80;76.20
22544;DHT22;11438;52.044;8.716;2022-07-06T03:09:48;18.80;76.20
22544;DHT22;11438;52.044;8.716;2022-07-06T03:12:14;18.80;76.30
22544;DHT22;11438;52.044;8.716;2022-07-06T03:14:39;18.80;76.50
22544;DHT22;11438;52.044;8.716;2022-07-06T03:17:05;18.80;76.50
22544;DHT22;11438;52.044;8.716;2022-07-06T03:19:30;18.80;76.60
22544;DHT22;11438;52.044;8.716;2022-07-06T03:21:56;18.80;76.60
22544;DHT22;11438;52.044;8.716;2022-07-06T03:24:21;18.80;76.60
22544;DHT22;11438;52.044;8.716;2022-07-06T03:26:47;18.80;76.60
22544;DHT22;11438;52.044;8.716;2022-07-06T03:29:12;18.80;76.60
22544;DHT22;11438;52.044;8.716;2022-07-06T03:31:38;18.80;76.70
22544;DHT22;11438;52.044;8.716;2022-07-06T03:34:03;18.80;76.60
22544;DHT22;11438;52.044;8.716;2022-07-06T03:36:29;18.80;76.60
22544;DHT22;11438;52.044;8.716;2022-07-06T03:38:54;18.80;76.70
22544;DHT22;11438;52.044;8.716;2022-07-06T03:41:20;18.80;76.70
22544;DHT22;11438;52.044;8.716;2022-07-06T03:43:45;18.70;76.80
22544;DHT22;11438;52.044;8.716;2022-07-06T03:46:11;18.70;76.60
22544;DHT22;11438;52.044;8.716;2022-07-06T03:48:36;18.70;76.80
22544;DHT22;11438;52.044;8.716;2022-07-06T03:51:02;18.70;76.60
22544;DHT22;11438;52.044;8.716;2022-07-06T03:53:27;18.60;76.70
22544;DHT22;11438;52.044;8.716;2022-07-06T03:55:53;18.60;76.80
22544;DHT22;11438;52.044;8.716;2022-07-06T03:58:37;18.60;76.90
22544;DHT22;11438;52.044;8.716;2022-07-06T04:01:02;18.60;76.90
22544;DHT22;11438;52.044;8.716;2022-07-06T04:03:28;18.50;76.90
22544;DHT22;11438;52.044;8.716;2022-07-06T04:05:53;18.50;77.10
22544;DHT22;11438;52.044;8.716;2022-07-06T04:08:19;18.50;77.10
22544;DHT22;11438;52.044;8.716;2022-07-06T04:10:45;18.40;78.00
22544;DHT22;11438;52.044;8.716;2022-07-06T04:13:11;18.40;77.20
22544;DHT22;11438;52.044;8.716;2022-07-06T04:15:36;18.40;77.40
22544;DHT22;11438;52.044;8.716;2022-07-06T04:18:02;18.40;77.40
22544;DHT22;11438;52.044;8.716;2022-07-06T04:20:27;18.40;77.60
22544;DHT22;11438;52.044;8.716;2022-07-06T04:22:53;18.30;77.50
22544;DHT22;11438;52.044;8.716;2022-07-06T04:25:19;18.30;77.60
22544;DHT22;11438;52.044;8.716;2022-07-06T04:27:45;18.30;77.70
22544;DHT22;11438;52.044;8.716;2022-07-06T04:30:10;18.30;78.00
22544;DHT22;11438;52.044;8.716;2022-07-06T04:32:36;18.30;78.30
22544;DHT22;11438;52.044;8.716;2022-07-06T04:35:03;18.30;78.20
22544;DHT22;11438;52.044;8.716;2022-07-06T04:37:29;18.30;78.30
22544;DHT22;11438;52.044;8.716;2022-07-06T04:39:55;18.30;78.50
22544;DHT22;11438;52.044;8.716;2022-07-06T04:42:20;18.30;78.90
22544;DHT22;11438;52.044;8.716;2022-07-06T04:44:45;18.30;78.70
22544;DHT22;11438;52.044;8.716;2022-07-06T04:47:12;18.30;79.00
22544;DHT22;11438;52.044;8.716;2022-07-06T04:49:38;18.30;79.10
22544;DHT22;11438;52.044;8.716;2022-07-06T04:52:04;18.30;79.10
22544;DHT22;11438;52.044;8.716;2022-07-06T04:54:29;18.30;79.40
22544;DHT22;11438;52.044;8.716;2022-07-06T04:56:55;18.30;79.30
22544;DHT22;11438;52.044;8.716;2022-07-06T04:59:21;18.30;79.40
22544;DHT22;11438;52.044;8.716;2022-07-06T05:01:46;18.30;79.30
22544;DHT22;11438;52.044;8.716;2022-07-06T05:04:12;18.40;79.50
22544;DHT22;11438;52.044;8.716;2022-07-06T05:06:37;18.40;79.50
22544;DHT22;11438;52.044;8.716;2022-07-06T05:09:03;18.40;79.90
22544;DHT22;11438;52.044;8.716;2022-07-06T05:11:28;18.40;79.80
22544;DHT22;11438;52.044;8.716;2022-07-06T05:13:54;18.50;80.10
22544;DHT22;11438;52.044;8.716;2022-07-06T05:16:20;18.50;80.10
22544;DHT22;11438;52.044;8.716;2022-07-06T05:18:46;18.60;80.20
22544;DHT22;11438;52.044;8.716;2022-07-06T05:21:11;18.60;80.40
22544;DHT22;11438;52.044;8.716;2022-07-06T05:23:37;18.70;80.70
22544;DHT22;11438;52.044;8.716;2022-07-06T05:26:03;18.80;80.10
22544;DHT22;11438;52.044;8.716;2022-07-06T05:28:28;18.80;80.00
22544;DHT22;11438;52.044;8.716;2022-07-06T05:30:54;18.90;80.30
22544;DHT22;11438;52.044;8.716;2022-07-06T05:33:19;19.00;80.80
22544;DHT22;11438;52.044;8.716;2022-07-06T05:35:45;19.00;79.70
22544;DHT22;11438;52.044;8.716;2022-07-06T05:38:10;19.10;79.70
22544;DHT22;11438;52.044;8.716;2022-07-06T05:40:36;19.20;79.40
22544;DHT22;11438;52.044;8.716;2022-07-06T05:43:02;19.20;79.10
22544;DHT22;11438;52.044;8.716;2022-07-06T05:45:28;19.20;79.10
22544;DHT22;11438;52.044;8.716;2022-07-06T05:47:53;19.30;78.80
22544;DHT22;11438;52.044;8.716;2022-07-06T05:50:37;19.30;78.80
22544;DHT22;11438;52.044;8.716;2022-07-06T05:53:04;19.40;78.90
22544;DHT22;11438;52.044;8.716;2022-07-06T05:55:30;19.40;78.70
22544;DHT22;11438;52.044;8.716;2022-07-06T05:57:56;19.50;79.00
22544;DHT22;11438;52.044;8.716;2022-07-06T06:00:26;19.50;79.00
22544;DHT22;11438;52.044;8.716;2022-07-06T06:02:52;19.50;78.70
22544;DHT22;11438;52.044;8.716;2022-07-06T06:05:18;19.60;78.30
22544;DHT22;11438;52.044;8.716;2022-07-06T06:07:44;19.60;78.40
22544;DHT22;11438;52.044;8.716;2022-07-06T06:10:13;19.70;78.20
22544;DHT22;11438;52.044;8.716;2022-07-06T06:12:39;19.70;78.40
22544;DHT22;11438;52.044;8.716;2022-07-06T06:15:05;19.70;78.40
22544;DHT22;11438;52.044;8.716;2022-07-06T06:17:32;19.80;78.60
22544;DHT22;11438;52.044;8.716;2022-07-06T06:19:58;19.80;78.50
22544;DHT22;11438;52.044;8.716;2022-07-06T06:22:24;19.90;78.30
22544;DHT22;11438;52.044;8.716;2022-07-06T06:24:50;20.00;78.50
22544;DHT22;11438;52.044;8.716;2022-07-06T06:27:15;20.00;78.30
22544;DHT22;11438;52.044;8.716;2022-07-06T06:29:41;20.10;77.80
22544;DHT22;11438;52.044;8.716;2022-07-06T06:32:10;20.20;77.80
22544;DHT22;11438;52.044;8.716;2022-07-06T06:34:35;20.20;77.70
22544;DHT22;11438;52.044;8.716;2022-07-06T06:37:01;20.30;77.50
22544;DHT22;11438;52.044;8.716;2022-07-06T06:39:27;20.30;77.30
22544;DHT22;11438;52.044;8.716;2022-07-06T06:41:52;20.40;77.30
22544;DHT22;11438;52.044;8.716;2022-07-06T06:44:18;20.40;77.40
22544;DHT22;11438;52.044;8.716;2022-07-06T06:46:43;20.50;77.00
22544;DHT22;11438;52.044;8.716;2022-07-06T06:49:09;20.50;76.30
22544;DHT22;11438;52.044;8.716;2022-07-06T06:51:35;20.60;76.10
22544;DHT22;11438;52.044;8.716;2022-07-06T06:54:00;20.60;75.20
22544;DHT22;11438;52.044;8.716;2022-07-06T06:56:26;20.60;74.60
22544;DHT22;11438;52.044;8.716;2022-07-06T06:58:52;20.60;74.00
22544;DHT22;11438;52.044;8.716;2022-07-06T07:01:17;20.70;74.30
22544;DHT22;11438;52.044;8.716;2022-07-06T07:03:43;20.70;74.50
22544;DHT22;11438;52.044;8.716;2022-07-06T07:06:08;20.70;74.20
22544;DHT22;11438;52.044;8.716;2022-07-06T07:08:33;20.70;74.20
22544;DHT22;11438;52.044;8.716;2022-07-06T07:10:59;20.70;73.50
22544;DHT22;11438;52.044;8.716;2022-07-06T07:13:24;20.80;73.70
22544;DHT22;11438;52.044;8.716;2022-07-06T07:15:50;20.80;73.00
22544;DHT22;11438;52.044;8.716;2022-07-06T07:18:15;20.80;72.90
22544;DHT22;11438;52.044;8.716;2022-07-06T07:20:41;20.80;72.80
22544;DHT22;11438;52.044;8.716;2022-07-06T07:23:07;20.80;72.50
22544;DHT22;11438;52.044;8.716;2022-07-06T07:25:32;20.80;72.70
22544;DHT22;11438;52.044;8.716;2022-07-06T07:27:58;20.90;73.10
22544;DHT22;11438;52.044;8.716;2022-07-06T07:30:23;20.80;72.90
22544;DHT22;11438;52.044;8.716;2022-07-06T07:32:49;20.90;73.40
22544;DHT22;11438;52.044;8.716;2022-07-06T07:35:14;20.90;73.60
22544;DHT22;11438;52.044;8.716;2022-07-06T07:37:40;21.00;72.30
22544;DHT22;11438;52.044;8.716;2022-07-06T07:40:06;21.00;71.50
22544;DHT22;11438;52.044;8.716;2022-07-06T07:42:32;21.00;72.20
22544;DHT22;11438;52.044;8.716;2022-07-06T07:44:58;21.00;72.10
22544;DHT22;11438;52.044;8.716;2022-07-06T07:47:23;21.00;71.70
22544;DHT22;11438;52.044;8.716;2022-07-06T07:49:49;21.00;71.90
22544;DHT22;11438;52.044;8.716;2022-07-06T07:52:15;21.00;72.60
22544;DHT22;11438;52.044;8.716;2022-07-06T07:54:40;21.10;70.80
22544;DHT22;11438;52.044;8.716;2022-07-06T07:57:06;21.10;70.30
22544;DHT22;11438;52.044;8.716;2022-07-06T07:59:32;21.20;70.40
22544;DHT22;11438;52.044;8.716;2022-07-06T08:01:57;21.20;71.00
22544;DHT22;11438;52.044;8.716;2022-07-06T08:04:23;21.30;70.80
22544;DHT22;11438;52.044;8.716;2022-07-06T08:06:48;21.40;70.00
22544;DHT22;11438;52.044;8.716;2022-07-06T08:09:14;21.50;68.90
22544;DHT22;11438;52.044;8.716;2022-07-06T08:11:41;21.50;69.50
22544;DHT22;11438;52.044;8.716;2022-07-06T08:14:06;21.60;69.20
22544;DHT22;11438;52.044;8.716;2022-07-06T08:16:32;21.70;68.60
22544;DHT22;11438;52.044;8.716;2022-07-06T08:18:57;21.70;68.70
22544;DHT22;11438;52.044;8.716;2022-07-06T08:21:23;21.70;68.10
22544;DHT22;11438;52.044;8.716;2022-07-06T08:23:49;21.70;68.60
22544;DHT22;11438;52.044;8.716;2022-07-06T08:26:14;21.70;68.60
22544;DHT22;11438;52.044;8.716;2022-07-06T08:28:40;21.70;68.80
22544;DHT22;11438;52.044;8.716;2022-07-06T08:31:06;21.70;68.00
22544;DHT22;11438;52.044;8.716;2022-07-06T08:33:31;21.70;68.30
22544;DHT22;11438;52.044;8.716;2022-07-06T08:35:57;21.70;68.60
22544;DHT22;11438;52.044;8.716;2022-07-06T08:38:22;21.70;68.00
22544;DHT22;11438;52.044;8.716;2022-07-06T08:40:49;21.70;68.20
22544;DHT22;11438;52.044;8.716;2022-07-06T08:43:16;21.70;67.30
22544;DHT22;11438;52.044;8.716;2022-07-06T08:45:41;21.80;67.70
22544;DHT22;11438;52.044;8.716;2022-07-06T08:48:10;21.80;68.00
22544;DHT22;11438;52.044;8.716;2022-07-06T08:50:36;21.90;67.60
22544;DHT22;11438;52.044;8.716;2022-07-06T08:53:02;22.00;67.60
22544;DHT22;11438;52.044;8.716;2022-07-06T08:55:28;22.00;67.30
22544;DHT22;11438;52.044;8.716;2022-07-06T08:57:55;22.10;67.40
22544;DHT22;11438;52.044;8.716;2022-07-06T09:00:22;22.10;66.90
22544;DHT22;11438;52.044;8.716;2022-07-06T09:02:49;22.10;67.10
22544;DHT22;11438;52.044;8.716;2022-07-06T09:05:22;22.20;66.60
22544;DHT22;11438;52.044;8.716;2022-07-06T09:07:52;22.20;66.50
22544;DHT22;11438;52.044;8.716;2022-07-06T09:10:20;22.20;66.60
22544;DHT22;11438;52.044;8.716;2022-07-06T09:12:48;22.30;66.80
22544;DHT22;11438;52.044;8.716;2022-07-06T09:15:14;22.30;66.70
22544;DHT22;11438;52.044;8.716;2022-07-06T09:17:41;22.30;65.60
22544;DHT22;11438;52.044;8.716;2022-07-06T09:20:08;22.30;65.40
22544;DHT22;11438;52.044;8.716;2022-07-06T09:22:34;22.40;65.30
22544;DHT22;11438;52.044;8.716;2022-07-06T09:25:08;22.40;65.00
22544;DHT22;11438;52.044;8.716;2022-07-06T09:27:43;22.40;64.50
22544;DHT22;11438;52.044;8.716;2022-07-06T09:30:13;22.50;64.00
22544;DHT22;11438;52.044;8.716;2022-07-06T09:32:47;22.60;64.80
22544;DHT22;11438;52.044;8.716;2022-07-06T09:35:36;22.60;64.10
22544;DHT22;11438;52.044;8.716;2022-07-06T09:38:12;22.60;64.50
22544;DHT22;11438;52.044;8.716;2022-07-06T09:40:44;22.70;63.40
22544;DHT22;11438;52.044;8.716;2022-07-06T09:43:17;22.70;62.40
22544;DHT22;11438;52.044;8.716;2022-07-06T09:45:46;22.70;63.10
22544;DHT22;11438;52.044;8.716;2022-07-06T09:48:14;22.80;62.30
22544;DHT22;11438;52.044;8.716;2022-07-06T09:50:45;22.80;62.10
22544;DHT22;11438;52.044;8.716;2022-07-06T09:53:12;22.80;62.00
22544;DHT22;11438;52.044;8.716;2022-07-06T09:55:43;22.70;61.90
22544;DHT22;11438;52.044;8.716;2022-07-06T09:58:09;22.70;61.80
22544;DHT22;11438;52.044;8.716;2022-07-06T10:00:34;22.70;62.30
22544;DHT22;11438;52.044;8.716;2022-07-06T10:03:00;22.60;61.90
22544;DHT22;11438;52.044;8.716;2022-07-06T10:05:27;22.60;61.90
22544;DHT22;11438;52.044;8.716;2022-07-06T10:07:57;22.50;61.70
22544;DHT22;11438;52.044;8.716;2022-07-06T10:10:28;22.40;61.40
22544;DHT22;11438;52.044;8.716;2022-07-06T10:12:58;22.40;61.80
22544;DHT22;11438;52.044;8.716;2022-07-06T10:15:29;22.30;61.80
22544;DHT22;11438;52.044;8.716;2022-07-06T10:17:57;22.20;61.90
22544;DHT22;11438;52.044;8.716;2022-07-06T10:20:27;22.20;61.60
22544;DHT22;11438;52.044;8.716;2022-07-06T10:22:54;22.10;61.40
22544;DHT22;11438;52.044;8.716;2022-07-06T10:25:21;22.10;61.10
22544;DHT22;11438;52.044;8.716;2022-07-06T10:27:47;22.00;61.40
22544;DHT22;11438;52.044;8.716;2022-07-06T10:30:14;22.00;61.60
22544;DHT22;11438;52.044;8.716;2022-07-06T10:32:42;21.90;62.10
22544;DHT22;11438;52.044;8.716;2022-07-06T10:35:09;21.90;62.40
22544;DHT22;11438;52.044;8.716;2022-07-06T10:37:34;21.90;62.50
22544;DHT22;11438;52.044;8.716;2022-07-06T10:40:00;21.80;62.80
22544;DHT22;11438;52.044;8.716;2022-07-06T10:42:47;21.80;62.50
22544;DHT22;11438;52.044;8.716;2022-07-06T10:46:06;21.80;62.60
22544;DHT22;11438;52.044;8.716;2022-07-06T10:50:47;21.90;63.80
22544;DHT22;11438;52.044;8.716;2022-07-06T10:53:14;21.90;64.10
22544;DHT22;11438;52.044;8.716;2022-07-06T10:55:43;22.00;62.50
22544;DHT22;11438;52.044;8.716;2022-07-06T10:58:09;22.10;63.30
22544;DHT22;11438;52.044;8.716;2022-07-06T11:00:48;22.20;63.20
22544;DHT22;11438;52.044;8.716;2022-07-06T11:03:35;22.30;63.70
22544;DHT22;11438;52.044;8.716;2022-07-06T11:07:02;22.40;62.80
22544;DHT22;11438;52.044;8.716;2022-07-06T11:08:58;22.50;64.20
22544;DHT22;11438;52.044;8.716;2022-07-06T11:17:00;22.80;61.90
22544;DHT22;11438;52.044;8.716;2022-07-06T11:19:27;22.90;62.30
22544;DHT22;11438;52.044;8.716;2022-07-06T11:22:04;23.00;61.40
22544;DHT22;11438;52.044;8.716;2022-07-06T11:24:31;23.10;61.10
22544;DHT22;11438;52.044;8.716;2022-07-06T11:26:59;23.20;59.80
22544;DHT22;11438;52.044;8.716;2022-07-06T11:29:26;23.20;59.70
22544;DHT22;11438;52.044;8.716;2022-07-06T11:31:54;23.30;59.70
22544;DHT22;11438;52.044;8.716;2022-07-06T11:34:22;23.40;59.50
22544;DHT22;11438;52.044;8.716;2022-07-06T11:36:49;23.50;59.80
22544;DHT22;11438;52.044;8.716;2022-07-06T11:39:15;23.50;58.70
22544;DHT22;11438;52.044;8.716;2022-07-06T11:41:41;23.60;59.10
22544;DHT22;11438;52.044;8.716;2022-07-06T11:44:07;23.60;58.70
22544;DHT22;11438;52.044;8.716;2022-07-06T11:46:34;23.60;58.40
22544;DHT22;11438;52.044;8.716;2022-07-06T11:49:06;23.60;58.10
22544;DHT22;11438;52.044;8.716;2022-07-06T11:51:37;23.60;58.40
22544;DHT22;11438;52.044;8.716;2022-07-06T11:54:17;23.60;58.20
22544;DHT22;11438;52.044;8.716;2022-07-06T11:56:55;23.60;57.90
22544;DHT22;11438;52.044;8.716;2022-07-06T11:59:29;23.60;58.20
22544;DHT22;11438;52.044;8.716;2022-07-06T12:02:01;23.60;58.80
22544;DHT22;11438;52.044;8.716;2022-07-06T12:04:28;23.60;58.70
22544;DHT22;11438;52.044;8.716;2022-07-06T12:06:54;23.60;57.70
22544;DHT22;11438;52.044;8.716;2022-07-06T12:09:19;23.60;58.50
22544;DHT22;11438;52.044;8.716;2022-07-06T12:11:46;23.70;58.50
22544;DHT22;11438;52.044;8.716;2022-07-06T12:14:15;23.70;58.20
22544;DHT22;11438;52.044;8.716;2022-07-06T12:16:41;23.80;58.00
22544;DHT22;11438;52.044;8.716;2022-07-06T12:19:07;23.80;57.80
22544;DHT22;11438;52.044;8.716;2022-07-06T12:21:34;23.90;57.30
22544;DHT22;11438;52.044;8.716;2022-07-06T12:24:00;23.90;57.50
22544;DHT22;11438;52.044;8.716;2022-07-06T12:26:27;24.00;57.20
22544;DHT22;11438;52.044;8.716;2022-07-06T12:29:05;24.10;57.60
22544;DHT22;11438;52.044;8.716;2022-07-06T12:31:37;24.20;56.70
22544;DHT22;11438;52.044;8.716;2022-07-06T12:34:04;24.20;56.90
22544;DHT22;11438;52.044;8.716;2022-07-06T12:36:31;24.30;57.50
22544;DHT22;11438;52.044;8.716;2022-07-06T12:38:57;24.30;57.00
22544;DHT22;11438;52.044;8.716;2022-07-06T12:41:28;24.30;57.30
22544;DHT22;11438;52.044;8.716;2022-07-06T12:44:08;24.40;56.40
22544;DHT22;11438;52.044;8.716;2022-07-06T12:46:41;24.40;56.50
22544;DHT22;11438;52.044;8.716;2022-07-06T12:49:22;24.60;56.60
22544;DHT22;11438;52.044;8.716;2022-07-06T12:57:19;24.80;55.00
22544;DHT22;11438;52.044;8.716;2022-07-06T13:02:30;25.00;54.50
22544;DHT22;11438;52.044;8.716;2022-07-06T13:07:26;25.00;54.10
22544;DHT22;11438;52.044;8.716;2022-07-06T13:09:53;25.00;54.10
22544;DHT22;11438;52.044;8.716;2022-07-06T13:12:20;25.00;53.30
22544;DHT22;11438;52.044;8.716;2022-07-06T13:14:46;25.10;54.10
22544;DHT22;11438;52.044;8.716;2022-07-06T13:17:12;25.10;54.00
22544;DHT22;11438;52.044;8.716;2022-07-06T13:19:38;25.10;53.40
22544;DHT22;11438;52.044;8.716;2022-07-06T13:22:03;25.20;53.40
22544;DHT22;11438;52.044;8.716;2022-07-06T13:24:29;25.20;52.80
22544;DHT22;11438;52.044;8.716;2022-07-06T13:26:56;25.20;53.30
22544;DHT22;11438;52.044;8.716;2022-07-06T13:29:22;25.20;52.30
22544;DHT22;11438;52.044;8.716;2022-07-06T13:31:48;25.20;52.70
22544;DHT22;11438;52.044;8.716;2022-07-06T13:34:13;25.10;52.60
22544;DHT22;11438;52.044;8.716;2022-07-06T13:36:39;25.20;52.20
22544;DHT22;11438;52.044;8.716;2022-07-06T13:39:05;25.20;52.70
22544;DHT22;11438;52.044;8.716;2022-07-06T13:41:31;25.20;52.50
22544;DHT22;11438;52.044;8.716;2022-07-06T13:43:57;25.20;53.20
22544;DHT22;11438;52.044;8.716;2022-07-06T13:46:24;25.20;52.30
22544;DHT22;11438;52.044;8.716;2022-07-06T13:48:49;25.20;52.30
22544;DHT22;11438;52.044;8.716;2022-07-06T13:51:15;25.30;51.50
22544;DHT22;11438;52.044;8.716;2022-07-06T13:53:40;25.40;51.40
22544;DHT22;11438;52.044;8.716;2022-07-06T13:56:06;25.40;50.90
22544;DHT22;11438;52.044;8.716;2022-07-06T13:58:33;25.40;52.50
22544;DHT22;11438;52.044;8.716;2022-07-06T14:00:58;25.50;51.50
22544;DHT22;11438;52.044;8.716;2022-07-06T14:03:24;25.50;50.80
22544;DHT22;11438;52.044;8.716;2022-07-06T14:05:58;25.50;50.80
22544;DHT22;11438;52.044;8.716;2022-07-06T14:08:25;25.60;52.00
22544;DHT22;11438;52.044;8.716;2022-07-06T14:10:51;25.60;51.20
22544;DHT22;11438;52.044;8.716;2022-07-06T14:13:17;25.60;50.70
22544;DHT22;11438;52.044;8.716;2022-07-06T14:15:43;25.60;51.10
22544;DHT22;11438;52.044;8.716;2022-07-06T14:18:08;25.60;50.80
22544;DHT22;11438;52.044;8.716;2022-07-06T14:20:34;25.60;50.20
22544;DHT22;11438;52.044;8.716;2022-07-06T14:22:59;25.60;50.30
22544;DHT22;11438;52.044;8.716;2022-07-06T14:25:25;25.60;48.90
22544;DHT22;11438;52.044;8.716;2022-07-06T14:27:50;25.60;49.40
22544;DHT22;11438;52.044;8.716;2022-07-06T14:30:16;25.60;49.30
22544;DHT22;11438;52.044;8.716;2022-07-06T14:32:41;25.60;50.00
22544;DHT22;11438;52.044;8.716;2022-07-06T14:35:09;25.60;50.50
22544;DHT22;11438;52.044;8.716;2022-07-06T14:37:35;25.60;50.60
22544;DHT22;11438;52.044;8.716;2022-07-06T14:40:00;25.60;49.60
22544;DHT22;11438;52.044;8.716;2022-07-06T14:42:26;25.60;48.70
22544;DHT22;11438;52.044;8.716;2022-07-06T14:44:51;25.60;49.20
22544;DHT22;11438;52.044;8.716;2022-07-06T14:47:17;25.60;49.10
22544;DHT22;11438;52.044;8.716;2022-07-06T14:49:42;25.60;49.10
22544;DHT22;11438;52.044;8.716;2022-07-06T14:52:08;25.60;49.40
22544;DHT22;11438;52.044;8.716;2022-07-06T14:54:35;25.60;49.00
22544;DHT22;11438;52.044;8.716;2022-07-06T14:57:02;25.60;48.20
22544;DHT22;11438;52.044;8.716;2022-07-06T14:59:29;25.60;48.60
22544;DHT22;11438;52.044;8.716;2022-07-06T15:01:55;25.60;48.20
22544;DHT22;11438;52.044;8.716;2022-07-06T15:04:21;25.50;48.40
22544;DHT22;11438;52.044;8.716;2022-07-06T15:06:46;25.50;48.60
22544;DHT22;11438;52.044;8.716;2022-07-06T15:09:12;25.50;49.00
22544;DHT22;11438;52.044;8.716;2022-07-06T15:11:37;25.50;48.60
22544;DHT22;11438;52.044;8.716;2022-07-06T15:14:03;25.50;48.30
22544;DHT22;11438;52.044;8.716;2022-07-06T15:16:28;25.50;49.00
22544;DHT22;11438;52.044;8.716;2022-07-06T15:18:54;25.40;48.30
22544;DHT22;11438;52.044;8.716;2022-07-06T15:21:19;25.40;48.00
22544;DHT22;11438;52.044;8.716;2022-07-06T15:23:44;25.40;48.00
22544;DHT22;11438;52.044;8.716;2022-07-06T15:26:10;25.40;48.20
22544;DHT22;11438;52.044;8.716;2022-07-06T15:28:36;25.30;48.80
22544;DHT22;11438;52.044;8.716;2022-07-06T15:31:01;25.30;49.10
22544;DHT22;11438;52.044;8.716;2022-07-06T15:33:27;25.20;48.70
22544;DHT22;11438;52.044;8.716;2022-07-06T15:35:52;25.30;49.00
22544;DHT22;11438;52.044;8.716;2022-07-06T15:38:18;25.20;48.70
22544;DHT22;11438;52.044;8.716;2022-07-06T15:40:44;25.20;49.20
22544;DHT22;11438;52.044;8.716;2022-07-06T15:43:17;25.20;48.70
22544;DHT22;11438;52.044;8.716;2022-07-06T15:45:42;25.20;49.60
22544;DHT22;11438;52.044;8.716;2022-07-06T15:48:08;25.20;49.10